Time;durP1;ratioP1;P1;durP2;ratioP2;P2;SDS_P1;SDS_P2;PMS_P1;PMS_P2;Temp;Humidity;BMP_temperature;BMP_pressure;BME280_temperature;BME280_humidity;BME280_pressure;Samples;Min_cycle;Max_cycle;Signal;HPM_P1;HPM_P2
2023/12/02 00:01:07;;;;;;;36.42;24.10;;;-3.40;1.00;;;;;;5153438;27;21068;-77
2023/12/02 00:03:35;;;;;;;35.47;22.77;;;-3.40;1.00;;;;;;5157354;27;20261;-77
2023/12/02 00:06:04;;;;;;;39.80;24.80;;;-3.40;1.00;;;;;;5153402;27;20254;-77
2023/12/02 00:08:31;;;;;;;33.85;21.73;;;-3.40;1.00;;;;;;5151925;27;20235;-77
2023/12/02 00:10:58;;;;;;;38.47;21.20;;;-3.40;1.00;;;;;;5153094;27;21775;-77
2023/12/02 00:13:25;;;;;;;34.83;20.30;;;-3.40;1.00;;;;;;5155766;27;21020;-77
2023/12/02 00:15:52;;;;;;;30.05;18.90;;;-3.40;1.00;;;;;;5151038;27;20226;-77
2023/12/02 00:18:21;;;;;;;29.83;18.98;;;-3.30;1.00;;;;;;5146091;27;20272;-77
2023/12/02 00:20:49;;;;;;;34.35;19.48;;;-3.40;1.00;;;;;;5163144;27;20234;-77
2023/12/02 00:23:16;;;;;;;33.65;20.13;;;-3.30;1.00;;;;;;5151977;27;20262;-77
2023/12/02 00:25:45;;;;;;;28.75;20.15;;;-3.30;1.00;;;;;;5155945;27;20276;-77
2023/12/02 00:28:12;;;;;;;29.55;19.05;;;-3.40;1.00;;;;;;5155962;27;20262;-77
2023/12/02 00:30:39;;;;;;;34.50;19.92;;;-3.40;1.00;;;;;;5151344;27;20238;-77
2023/12/02 00:33:06;;;;;;;31.48;20.30;;;-3.40;1.00;;;;;;5151175;27;20736;-78
2023/12/02 00:35:34;;;;;;;34.55;20.65;;;-3.40;1.00;;;;;;5151341;27;20249;-77
2023/12/02 00:38:02;;;;;;;32.05;19.35;;;-3.40;1.00;;;;;;5161910;27;20237;-77
2023/12/02 00:40:30;;;;;;;31.58;19.80;;;-3.40;1.00;;;;;;5156042;27;20320;-77
2023/12/02 00:42:57;;;;;;;32.17;18.08;;;-3.40;1.00;;;;;;5155401;27;20345;-77
2023/12/02 00:45:24;;;;;;;32.28;17.85;;;-3.40;1.00;;;;;;5153290;27;20231;-77
2023/12/02 00:47:51;;;;;;;29.70;19.13;;;-3.40;1.00;;;;;;5159909;27;20237;-77
2023/12/02 00:50:18;;;;;;;32.72;19.70;;;-3.50;1.00;;;;;;5154993;27;20225;-77
2023/12/02 00:52:46;;;;;;;35.60;19.77;;;-3.40;1.00;;;;;;5150263;27;20245;-77
2023/12/02 00:55:14;;;;;;;32.83;19.83;;;-3.50;1.00;;;;;;5151808;27;20747;-78
2023/12/02 00:57:41;;;;;;;29.63;19.88;;;-3.40;1.00;;;;;;5154822;27;20704;-77
2023/12/02 01:00:12;;;;;;;31.60;20.75;;;-3.40;1.00;;;;;;5153461;27;20780;-77
2023/12/02 01:02:39;;;;;;;33.97;21.08;;;-3.40;1.00;;;;;;5154942;27;20619;-77
2023/12/02 01:05:06;;;;;;;34.15;20.85;;;-3.40;1.00;;;;;;5156613;27;20234;-77
2023/12/02 01:07:33;;;;;;;34.00;19.23;;;-3.40;1.00;;;;;;5153407;27;20266;-77
2023/12/02 01:10:00;;;;;;;29.17;19.13;;;-3.40;1.00;;;;;;5145515;27;20388;-77
2023/12/02 01:12:30;;;;;;;35.42;19.05;;;-3.50;1.00;;;;;;5156244;27;20261;-77
2023/12/02 01:15:03;;;;;;;30.23;18.17;;;-3.50;1.00;;;;;;5154991;27;20398;-78
2023/12/02 01:17:33;;;;;;;30.05;19.08;;;-3.50;1.00;;;;;;5155738;27;21071;-77
2023/12/02 01:20:00;;;;;;;36.50;19.38;;;-3.50;1.00;;;;;;5153552;27;20229;-77
2023/12/02 01:22:27;;;;;;;31.92;18.10;;;-3.50;1.00;;;;;;5154588;27;20246;-77
2023/12/02 01:24:54;;;;;;;30.92;18.08;;;-3.50;1.00;;;;;;5155109;27;20244;-77
2023/12/02 01:27:21;;;;;;;31.80;17.92;;;-3.60;1.00;;;;;;5154557;27;20237;-77
2023/12/02 01:29:49;;;;;;;34.42;17.65;;;-3.60;1.00;;;;;;5153258;27;21046;-77
2023/12/02 01:32:16;;;;;;;31.45;17.25;;;-3.60;1.00;;;;;;5154574;27;20312;-77
2023/12/02 01:34:43;;;;;;;30.02;18.80;;;-3.60;1.00;;;;;;5153697;27;20240;-77
2023/12/02 01:37:11;;;;;;;30.27;16.40;;;-3.60;1.00;;;;;;5154183;27;20349;-77
2023/12/02 01:39:38;;;;;;;29.63;16.42;;;-3.70;1.00;;;;;;5154643;27;20234;-77
2023/12/02 01:42:05;;;;;;;26.00;16.60;;;-3.80;1.00;;;;;;5153106;27;20234;-77
2023/12/02 01:44:32;;;;;;;29.55;17.08;;;-3.80;1.00;;;;;;5153682;27;20234;-77
2023/12/02 01:47:02;;;;;;;27.83;17.25;;;-3.90;1.00;;;;;;5151578;27;20261;-77
2023/12/02 01:49:31;;;;;;;25.10;16.00;;;-4.00;1.00;;;;;;5154083;27;20234;-77
2023/12/02 01:51:59;;;;;;;25.80;15.98;;;-4.10;1.00;;;;;;5152943;27;20729;-77
2023/12/02 01:54:26;;;;;;;28.95;17.08;;;-4.10;1.00;;;;;;5151005;27;20245;-77
2023/12/02 01:56:53;;;;;;;25.58;16.52;;;-4.10;1.00;;;;;;5148241;27;20230;-77
2023/12/02 01:59:20;;;;;;;25.85;15.77;;;-4.10;1.00;;;;;;5152182;27;20310;-77
2023/12/02 02:01:47;;;;;;;27.02;15.75;;;-4.10;1.00;;;;;;5150505;27;20230;-77
2023/12/02 02:04:18;;;;;;;30.88;17.13;;;-4.10;1.00;;;;;;5153175;27;20234;-77
2023/12/02 02:06:45;;;;;;;30.45;15.90;;;-4.10;1.00;;;;;;5153336;27;20286;-77
2023/12/02 02:09:13;;;;;;;30.05;16.65;;;-4.10;1.00;;;;;;5154943;27;20268;-77
2023/12/02 02:11:40;;;;;;;33.33;18.15;;;-4.10;1.00;;;;;;5145973;27;20238;-77
2023/12/02 02:14:07;;;;;;;36.28;19.70;;;-4.10;1.00;;;;;;5149237;27;20408;-77
2023/12/02 02:16:34;;;;;;;34.78;18.45;;;-4.20;1.00;;;;;;5150898;27;20771;-76
2023/12/02 02:19:02;;;;;;;31.40;17.88;;;-4.10;1.00;;;;;;5151092;27;20226;-77
2023/12/02 02:21:31;;;;;;;34.22;18.17;;;-4.10;1.00;;;;;;5151645;27;20697;-77
2023/12/02 02:23:58;;;;;;;31.80;18.77;;;-4.10;1.00;;;;;;5147950;27;20325;-76
2023/12/02 02:26:25;;;;;;;31.90;18.20;;;-4.10;1.00;;;;;;5152690;27;20234;-76
2023/12/02 02:28:52;;;;;;;32.10;18.55;;;-4.10;1.00;;;;;;5151879;27;20263;-76
2023/12/02 02:31:20;;;;;;;29.73;17.75;;;-4.10;1.00;;;;;;5149117;27;20695;-76
2023/12/02 02:33:48;;;;;;;30.08;17.83;;;-4.00;1.00;;;;;;5151148;27;20230;-76
2023/12/02 02:36:15;;;;;;;29.50;18.83;;;-4.00;1.00;;;;;;5148023;27;21057;-76
2023/12/02 02:38:43;;;;;;;30.77;18.85;;;-3.90;1.00;;;;;;5151426;27;20286;-76
2023/12/02 02:41:12;;;;;;;35.75;18.98;;;-3.80;1.00;;;;;;5151622;27;20238;-76
2023/12/02 02:43:39;;;;;;;32.45;18.35;;;-3.80;1.00;;;;;;5150515;27;20242;-77
2023/12/02 02:46:08;;;;;;;35.58;20.35;;;-3.80;1.00;;;;;;5149179;27;20262;-76
2023/12/02 02:48:35;;;;;;;32.47;18.30;;;-3.80;1.00;;;;;;5147823;27;20240;-76
2023/12/02 02:51:02;;;;;;;28.98;18.25;;;-3.90;1.00;;;;;;5152113;27;20319;-76
2023/12/02 02:53:29;;;;;;;29.83;17.15;;;-3.90;1.00;;;;;;5151691;27;20279;-77
2023/12/02 02:55:57;;;;;;;34.03;18.15;;;-3.90;1.00;;;;;;5146660;27;20237;-76
2023/12/02 02:58:24;;;;;;;34.45;19.38;;;-3.90;1.00;;;;;;5152501;27;20237;-76
2023/12/02 03:00:52;;;;;;;30.80;17.48;;;-3.90;1.00;;;;;;5151303;27;21112;-77
2023/12/02 03:03:19;;;;;;;31.77;18.23;;;-3.90;1.00;;;;;;5147477;27;20238;-76
2023/12/02 03:05:46;;;;;;;31.30;18.95;;;-3.90;1.00;;;;;;5149757;27;20341;-76
2023/12/02 03:08:13;;;;;;;33.90;18.05;;;-4.00;1.00;;;;;;5153966;27;20245;-77
2023/12/02 03:10:40;;;;;;;36.40;18.60;;;-4.00;1.00;;;;;;5151798;27;20325;-75
2023/12/02 03:13:11;;;;;;;33.33;19.83;;;-4.00;1.00;;;;;;5148957;27;20238;-76
2023/12/02 03:15:38;;;;;;;35.17;20.90;;;-4.00;1.00;;;;;;5147828;27;20710;-76
2023/12/02 03:18:06;;;;;;;32.25;17.88;;;-4.00;1.00;;;;;;5150796;27;21037;-76
2023/12/02 03:20:33;;;;;;;33.97;18.83;;;-4.00;1.00;;;;;;5149100;27;20234;-76
2023/12/02 03:23:01;;;;;;;29.35;18.65;;;-4.10;1.00;;;;;;5150421;27;20231;-77
2023/12/02 03:25:28;;;;;;;34.25;20.38;;;-4.10;1.00;;;;;;5150664;27;20906;-76
2023/12/02 03:27:56;;;;;;;60.35;32.17;;;-4.10;1.00;;;;;;5148053;27;20314;-77
2023/12/02 03:30:24;;;;;;;44.58;25.38;;;-4.10;1.00;;;;;;5150312;27;21072;-77
2023/12/02 03:32:51;;;;;;;34.00;20.10;;;-4.10;1.00;;;;;;5148699;27;20266;-77
2023/12/02 03:35:18;;;;;;;38.75;20.92;;;-4.10;1.00;;;;;;5150894;27;20229;-77
2023/12/02 03:37:47;;;;;;;36.83;19.17;;;-4.00;1.00;;;;;;5150964;27;20226;-77
2023/12/02 03:40:13;;;;;;;33.28;18.88;;;-4.00;1.00;;;;;;5150523;27;20352;-77
2023/12/02 03:42:42;;;;;;;28.33;17.45;;;-3.90;1.00;;;;;;5150595;27;20261;-77
2023/12/02 03:45:10;;;;;;;35.45;17.30;;;-3.80;1.00;;;;;;5148916;27;20237;-78
2023/12/02 03:47:38;;;;;;;32.28;17.92;;;-3.90;1.00;;;;;;5146922;27;20325;-75
2023/12/02 03:50:09;;;;;;;35.20;19.17;;;-3.90;1.00;;;;;;5149289;27;20234;-78
2023/12/02 03:52:36;;;;;;;33.28;16.58;;;-3.90;1.00;;;;;;5153484;27;20307;-78
2023/12/02 03:55:05;;;;;;;32.60;19.17;;;-3.90;1.00;;;;;;5148475;27;20333;-77
2023/12/02 03:57:34;;;;;;;33.25;19.73;;;-4.00;1.00;;;;;;5150351;27;21053;-76
2023/12/02 04:00:06;;;;;;;30.73;16.92;;;-3.90;1.00;;;;;;5147490;27;20229;-76
2023/12/02 04:02:33;;;;;;;32.80;19.20;;;-4.00;1.00;;;;;;5146670;27;20321;-76
2023/12/02 04:05:02;;;;;;;27.65;17.40;;;-4.00;1.00;;;;;;5146107;27;20238;-76
2023/12/02 04:07:31;;;;;;;33.65;19.88;;;-4.00;1.00;;;;;;5149550;27;20241;-77
2023/12/02 04:09:58;;;;;;;31.80;17.52;;;-4.10;1.00;;;;;;5148315;27;20253;-76
2023/12/02 04:12:25;;;;;;;28.73;17.10;;;-4.10;1.00;;;;;;5147576;27;20322;-77
2023/12/02 04:14:52;;;;;;;32.38;17.45;;;-4.20;1.00;;;;;;5148407;27;20242;-76
2023/12/02 04:17:19;;;;;;;31.90;17.50;;;-4.20;1.00;;;;;;5152505;27;21065;-78
2023/12/02 04:19:46;;;;;;;30.65;16.95;;;-4.20;1.00;;;;;;5152018;27;21058;-78
2023/12/02 04:22:16;;;;;;;31.70;18.73;;;-4.40;1.00;;;;;;5151530;27;20263;-76
2023/12/02 04:24:43;;;;;;;27.33;16.88;;;-4.40;1.00;;;;;;5150081;27;20352;-76
2023/12/02 04:27:12;;;;;;;27.95;16.55;;;-4.30;1.00;;;;;;5146720;27;20316;-76
2023/12/02 04:29:41;;;;;;;31.42;16.42;;;-4.30;1.00;;;;;;5150777;27;20260;-76
2023/12/02 04:32:09;;;;;;;28.92;16.77;;;-4.30;1.00;;;;;;5144714;27;20260;-77
2023/12/02 04:34:38;;;;;;;27.75;17.20;;;-4.30;1.00;;;;;;5166443;27;20241;-77
2023/12/02 04:37:05;;;;;;;27.05;16.38;;;-4.40;1.00;;;;;;5152366;27;20347;-76
2023/12/02 04:39:34;;;;;;;31.13;17.33;;;-4.30;1.00;;;;;;5150671;27;20234;-76
2023/12/02 04:42:01;;;;;;;24.48;15.98;;;-4.30;1.00;;;;;;5148853;27;20230;-78
2023/12/02 04:44:31;;;;;;;26.83;16.17;;;-4.30;1.00;;;;;;5153670;27;20749;-77
2023/12/02 04:46:58;;;;;;;25.17;15.23;;;-4.40;1.00;;;;;;5150439;27;20232;-77
2023/12/02 04:49:25;;;;;;;26.63;15.30;;;-4.40;1.00;;;;;;5156017;27;20265;-77
2023/12/02 04:51:52;;;;;;;27.90;14.52;;;-4.40;1.00;;;;;;5153020;27;20240;-77
2023/12/02 04:54:20;;;;;;;27.73;16.30;;;-4.40;1.00;;;;;;5153690;27;20234;-76
2023/12/02 04:56:48;;;;;;;25.25;15.50;;;-4.40;1.00;;;;;;5149014;27;20329;-76
2023/12/02 04:59:15;;;;;;;27.25;16.10;;;-4.40;1.00;;;;;;5153641;27;20298;-76
2023/12/02 05:01:43;;;;;;;23.10;15.27;;;-4.40;1.00;;;;;;5154305;27;20329;-78
2023/12/02 05:04:10;;;;;;;35.08;18.38;;;-4.50;1.00;;;;;;5144236;27;20234;-78
2023/12/02 05:06:37;;;;;;;25.65;15.82;;;-4.50;1.00;;;;;;5154897;27;20230;-77
2023/12/02 05:09:06;;;;;;;23.80;14.80;;;-4.40;1.00;;;;;;5153352;27;20233;-77
2023/12/02 05:11:35;;;;;;;26.90;15.13;;;-4.40;1.00;;;;;;5153494;27;20274;-77
2023/12/02 05:14:04;;;;;;;25.38;14.20;;;-4.40;1.00;;;;;;5149974;27;20234;-77
2023/12/02 05:16:31;;;;;;;19.55;12.43;;;-4.40;1.00;;;;;;5150545;27;20238;-77
2023/12/02 05:19:00;;;;;;;24.48;15.07;;;-4.40;1.00;;;;;;5146427;27;20238;-77
2023/12/02 05:21:27;;;;;;;21.08;12.25;;;-4.40;1.00;;;;;;5166313;27;20234;-77
2023/12/02 05:23:54;;;;;;;21.77;12.43;;;-4.40;1.00;;;;;;5152292;27;20283;-77
2023/12/02 05:26:21;;;;;;;19.20;13.25;;;-4.40;1.00;;;;;;5152294;27;20315;-77
2023/12/02 05:28:48;;;;;;;20.33;12.85;;;-4.40;1.00;;;;;;5149649;27;20739;-77
2023/12/02 05:31:19;;;;;;;19.27;12.65;;;-4.40;1.00;;;;;;5156781;27;20287;-77
2023/12/02 05:33:47;;;;;;;19.80;12.13;;;-4.30;1.00;;;;;;5152041;27;20241;-77
2023/12/02 05:36:14;;;;;;;23.85;12.82;;;-4.30;1.00;;;;;;5152762;27;20234;-77
2023/12/02 05:38:41;;;;;;;18.90;11.88;;;-4.30;1.00;;;;;;5154177;27;20237;-77
2023/12/02 05:41:08;;;;;;;20.10;10.40;;;-4.30;1.00;;;;;;5153920;27;20245;-77
2023/12/02 05:43:35;;;;;;;17.52;11.80;;;-4.40;1.00;;;;;;5152334;27;20358;-77
2023/12/02 05:46:04;;;;;;;15.95;10.63;;;-4.30;1.00;;;;;;5148217;27;20318;-77
2023/12/02 05:48:35;;;;;;;14.93;10.55;;;-4.40;1.00;;;;;;5154249;27;20237;-77
2023/12/02 05:51:03;;;;;;;20.13;10.73;;;-4.40;1.00;;;;;;5152083;27;20233;-77
2023/12/02 05:53:32;;;;;;;18.05;10.70;;;-4.40;1.00;;;;;;5152530;27;20242;-76
2023/12/02 05:55:59;;;;;;;17.40;11.32;;;-4.40;1.00;;;;;;5148628;27;20321;-76
2023/12/02 05:58:25;;;;;;;17.17;11.95;;;-4.30;1.00;;;;;;5153542;27;20229;-76
2023/12/02 06:00:52;;;;;;;19.42;11.70;;;-4.30;1.00;;;;;;5150573;27;21097;-79
2023/12/02 06:03:20;;;;;;;17.58;11.85;;;-4.30;1.00;;;;;;5153354;27;20287;-77
2023/12/02 06:05:48;;;;;;;17.05;10.95;;;-4.30;1.00;;;;;;5147568;27;20242;-77
2023/12/02 06:08:15;;;;;;;17.80;11.68;;;-4.40;1.00;;;;;;5152831;27;20237;-77
2023/12/02 06:10:42;;;;;;;25.50;16.50;;;-4.40;1.00;;;;;;5154606;27;20325;-77
2023/12/02 06:13:09;;;;;;;15.25;10.48;;;-4.50;1.00;;;;;;5151395;27;21572;-76
2023/12/02 06:15:36;;;;;;;15.77;10.27;;;-4.50;1.00;;;;;;5152939;27;21147;-77
2023/12/02 06:18:06;;;;;;;14.07;9.88;;;-4.50;1.00;;;;;;5149811;27;20241;-78
2023/12/02 06:20:33;;;;;;;14.07;9.73;;;-4.50;1.00;;;;;;5154135;27;20256;-78
2023/12/02 06:23:01;;;;;;;15.10;10.48;;;-4.50;1.00;;;;;;5149417;27;20239;-78
2023/12/02 06:25:29;;;;;;;17.13;10.25;;;-4.50;1.00;;;;;;5151192;27;20238;-77
2023/12/02 06:27:56;;;;;;;15.65;11.68;;;-4.50;1.00;;;;;;5148506;27;20308;-78
2023/12/02 06:30:24;;;;;;;17.55;9.82;;;-4.40;1.00;;;;;;5151603;27;20318;-77
2023/12/02 06:32:52;;;;;;;20.60;12.15;;;-4.40;1.00;;;;;;5151590;27;20679;-78
2023/12/02 06:35:19;;;;;;;14.82;9.35;;;-4.40;1.00;;;;;;5153716;27;20241;-76
2023/12/02 06:37:46;;;;;;;16.77;9.50;;;-4.40;1.00;;;;;;5157389;27;20341;-76
2023/12/02 06:40:15;;;;;;;15.48;8.95;;;-4.30;1.00;;;;;;5153135;27;20943;-77
2023/12/02 06:42:43;;;;;;;15.88;10.18;;;-4.20;1.00;;;;;;5153675;27;20329;-76
2023/12/02 06:45:11;;;;;;;15.30;10.32;;;-4.20;1.00;;;;;;5153628;27;20236;-77
2023/12/02 06:47:39;;;;;;;14.70;10.02;;;-4.10;1.00;;;;;;5153436;27;20229;-76
2023/12/02 06:50:08;;;;;;;14.32;9.77;;;-4.10;1.00;;;;;;5153658;27;20238;-76
2023/12/02 06:52:35;;;;;;;14.82;9.77;;;-4.10;1.00;;;;;;5153531;27;20230;-76
2023/12/02 06:55:03;;;;;;;14.70;10.30;;;-4.00;1.00;;;;;;5142301;27;20283;-76
2023/12/02 06:57:32;;;;;;;16.85;9.73;;;-4.00;1.00;;;;;;5162900;27;20240;-76
2023/12/02 07:00:00;;;;;;;14.85;10.10;;;-4.00;1.00;;;;;;5151179;27;20261;-77
2023/12/02 07:02:27;;;;;;;15.52;9.30;;;-4.00;1.00;;;;;;5148736;27;20991;-77
2023/12/02 07:04:57;;;;;;;14.27;9.25;;;-4.00;1.00;;;;;;5147573;27;20230;-77
2023/12/02 07:07:25;;;;;;;21.63;9.93;;;-4.00;1.00;;;;;;5149570;27;20264;-76
2023/12/02 07:09:53;;;;;;;12.18;7.82;;;-4.00;1.00;;;;;;5149232;27;20329;-76
2023/12/02 07:12:22;;;;;;;13.10;8.75;;;-3.90;1.00;;;;;;5151210;27;20222;-76
2023/12/02 07:14:50;;;;;;;14.75;9.48;;;-3.90;1.00;;;;;;5150544;27;20337;-77
2023/12/02 07:17:17;;;;;;;14.75;9.77;;;-3.90;1.00;;;;;;5154290;27;20290;-76
2023/12/02 07:19:44;;;;;;;13.02;8.50;;;-3.80;1.00;;;;;;5149119;27;20234;-78
2023/12/02 07:22:12;;;;;;;12.43;9.80;;;-3.80;1.00;;;;;;5147929;27;20278;-76
2023/12/02 07:24:39;;;;;;;9.25;7.82;;;-3.80;1.00;;;;;;5152506;27;21060;-77
2023/12/02 07:27:06;;;;;;;11.95;7.88;;;-3.80;1.00;;;;;;5147908;27;20326;-78
2023/12/02 07:29:33;;;;;;;9.60;7.07;;;-3.80;1.00;;;;;;5153323;27;20226;-78
2023/12/02 07:32:01;;;;;;;12.98;8.40;;;-3.80;1.00;;;;;;5151010;27;20953;-76
2023/12/02 07:34:28;;;;;;;11.40;7.40;;;-3.80;1.00;;;;;;5151485;27;21103;-77
2023/12/02 07:36:55;;;;;;;11.45;6.90;;;-3.80;1.00;;;;;;5146810;27;21112;-77
2023/12/02 07:39:23;;;;;;;10.13;7.28;;;-3.80;1.00;;;;;;5151366;27;20286;-76
2023/12/02 07:41:51;;;;;;;16.13;10.05;;;-3.90;1.00;;;;;;5148950;27;20290;-77
2023/12/02 07:44:18;;;;;;;12.00;8.18;;;-3.80;1.00;;;;;;5151368;27;20306;-78
2023/12/02 07:46:49;;;;;;;10.00;7.28;;;-3.90;1.00;;;;;;5148755;27;20245;-77
2023/12/02 07:49:17;;;;;;;11.38;8.55;;;-3.90;1.00;;;;;;5147969;27;20234;-77
2023/12/02 07:51:44;;;;;;;12.88;8.25;;;-3.90;1.00;;;;;;5151210;27;20719;-76
2023/12/02 07:54:11;;;;;;;12.13;8.60;;;-3.80;1.00;;;;;;5150751;27;20316;-77
2023/12/02 07:56:39;;;;;;;13.65;9.82;;;-3.80;1.00;;;;;;5148323;27;20285;-77
2023/12/02 07:59:06;;;;;;;14.27;9.55;;;-3.80;1.00;;;;;;5146631;27;20261;-77
2023/12/02 08:01:34;;;;;;;13.75;10.82;;;-3.80;1.00;;;;;;5144377;27;20245;-77
2023/12/02 08:04:04;;;;;;;14.60;9.40;;;-3.90;1.00;;;;;;5154345;27;20238;-77
2023/12/02 08:06:34;;;;;;;15.98;9.82;;;-3.80;1.00;;;;;;5149145;27;20243;-77
2023/12/02 08:09:01;;;;;;;16.10;10.50;;;-3.70;1.00;;;;;;5151477;27;20266;-77
2023/12/02 08:11:28;;;;;;;12.32;8.68;;;-3.60;1.00;;;;;;5150285;27;21047;-77
2023/12/02 08:13:55;;;;;;;13.43;10.25;;;-3.50;1.00;;;;;;5153559;27;20269;-76
2023/12/02 08:16:22;;;;;;;16.35;10.90;;;-3.50;1.00;;;;;;5156134;27;20790;-77
2023/12/02 08:18:49;;;;;;;15.25;9.50;;;-3.40;1.00;;;;;;5154070;27;20237;-77
2023/12/02 08:21:16;;;;;;;16.92;11.18;;;-3.30;1.00;;;;;;5156488;27;20244;-77
2023/12/02 08:23:44;;;;;;;15.00;9.80;;;-3.20;1.00;;;;;;5151762;27;20241;-77
2023/12/02 08:26:11;;;;;;;14.23;9.50;;;-3.10;1.00;;;;;;5152936;27;20230;-77
2023/12/02 08:28:39;;;;;;;13.60;8.85;;;-2.90;1.00;;;;;;5153124;27;20280;-77
2023/12/02 08:31:08;;;;;;;16.33;11.15;;;-2.90;1.00;;;;;;5149720;27;20229;-77
2023/12/02 08:33:35;;;;;;;13.35;10.75;;;-2.70;1.00;;;;;;5150903;27;20964;-78
2023/12/02 08:36:02;;;;;;;17.33;11.43;;;-2.60;1.00;;;;;;5154319;27;20299;-77
2023/12/02 08:38:30;;;;;;;14.52;10.70;;;-2.50;1.00;;;;;;5154334;27;20222;-77
2023/12/02 08:40:58;;;;;;;14.68;9.93;;;-2.40;1.00;;;;;;5152196;27;20237;-77
2023/12/02 08:43:25;;;;;;;15.15;10.55;;;-2.40;1.00;;;;;;5152822;27;20713;-78
2023/12/02 08:45:52;;;;;;;13.35;10.45;;;-2.40;1.00;;;;;;5152259;27;20240;-78
2023/12/02 08:48:19;;;;;;;15.70;10.60;;;-2.30;1.00;;;;;;5149334;27;20267;-78
2023/12/02 08:50:46;;;;;;;17.35;11.20;;;-2.30;1.00;;;;;;5152790;27;20241;-78
2023/12/02 08:53:13;;;;;;;14.00;9.63;;;-2.20;1.00;;;;;;5152147;27;20238;-78
2023/12/02 08:55:43;;;;;;;18.33;12.88;;;-2.10;1.00;;;;;;5152783;27;20250;-76
2023/12/02 08:58:12;;;;;;;16.48;11.10;;;-2.00;1.00;;;;;;5154540;27;20265;-77
2023/12/02 09:00:39;;;;;;;15.30;10.80;;;-1.90;1.00;;;;;;5151407;27;20230;-77
2023/12/02 09:03:06;;;;;;;21.25;12.40;;;-1.90;1.00;;;;;;5157396;27;20234;-77
2023/12/02 09:05:33;;;;;;;15.63;9.70;;;-1.80;1.00;;;;;;5154086;27;20697;-77
2023/12/02 09:08:01;;;;;;;14.77;10.30;;;-1.60;1.00;;;;;;5152858;27;20254;-78
2023/12/02 09:10:28;;;;;;;12.88;9.20;;;-1.50;1.00;;;;;;5154226;27;20241;-77
2023/12/02 09:12:56;;;;;;;13.13;9.35;;;-1.40;1.00;;;;;;5152327;27;21090;-77
2023/12/02 09:15:40;;;;;;;13.38;10.10;;;-1.30;1.00;;;;;;5142849;27;20226;-77
2023/12/02 09:18:10;;;;;;;9.60;8.60;;;-1.20;1.00;;;;;;5141633;27;20296;-77
2023/12/02 09:20:43;;;;;;;17.60;12.70;;;-1.10;1.00;;;;;;5145275;27;20229;-77
2023/12/02 09:23:11;;;;;;;18.60;10.30;;;-1.10;1.00;;;;;;5154572;27;20242;-78
2023/12/02 09:25:40;;;;;;;12.50;9.20;;;-1.00;1.00;;;;;;5153117;27;20230;-78
2023/12/02 09:28:26;;;;;;;15.43;10.77;;;-0.80;1.00;;;;;;5153385;27;20230;-78
2023/12/02 09:31:01;;;;;;;13.25;8.63;;;-0.70;1.00;;;;;;5149708;27;20226;-78
2023/12/02 09:33:28;;;;;;;12.57;9.50;;;-0.60;1.00;;;;;;5149657;27;20975;-78
2023/12/02 09:35:58;;;;;;;18.70;11.40;;;-0.60;1.00;;;;;;5148239;27;20230;-78
2023/12/02 09:38:29;;;;;;;14.10;10.23;;;-0.50;1.00;;;;;;5154951;27;20233;-79
2023/12/02 09:41:36;;;;;;;13.55;9.45;;;-0.40;1.00;;;;;;5151932;27;20237;-78
2023/12/02 09:44:18;;;;;;;21.25;10.60;;;-0.30;1.00;;;;;;5090871;28;20229;-79
2023/12/02 09:47:05;;;;;;;11.38;9.27;;;-0.40;1.00;;;;;;5085839;28;20916;-78
2023/12/02 09:49:58;;;;;;;12.27;9.45;;;-0.70;1.00;;;;;;5088020;28;21000;-79
2023/12/02 09:52:48;;;;;;;16.80;9.70;;;-0.80;1.00;;;;;;5084643;28;20295;-78
2023/12/02 09:55:20;;;;;;;17.20;10.40;;;-1.00;1.00;;;;;;5095851;27;20309;-77
2023/12/02 09:57:52;;;;;;;14.00;9.90;;;-0.90;1.00;;;;;;5154676;27;20289;-79
2023/12/02 10:00:30;;;;;;;13.25;9.88;;;-0.90;1.00;;;;;;5147386;27;20242;-79
2023/12/02 10:03:18;;;;;;;15.85;10.95;;;-0.80;1.00;;;;;;5150211;27;20291;-79
2023/12/02 10:05:59;;;;;;;15.82;10.65;;;-0.70;1.00;;;;;;5151962;27;20311;-78
2023/12/02 10:08:34;;;;;;;14.55;10.77;;;-0.60;1.00;;;;;;5146157;27;20294;-80
2023/12/02 10:11:07;;;;;;;18.70;10.77;;;-0.50;1.00;;;;;;5147475;27;20226;-80
2023/12/02 10:13:45;;;;;;;13.57;11.15;;;-0.40;1.00;;;;;;5154166;27;20751;-80
2023/12/02 10:16:16;;;;;;;13.48;9.43;;;-0.40;1.00;;;;;;5153108;27;20246;-79
2023/12/02 10:18:49;;;;;;;20.63;11.55;;;-0.40;1.00;;;;;;5149519;27;21159;-79
2023/12/02 10:21:19;;;;;;;17.83;10.23;;;-0.40;1.00;;;;;;5144410;27;20230;-78
2023/12/02 10:23:56;;;;;;;15.02;9.82;;;-0.40;1.00;;;;;;5146063;27;20330;-79
2023/12/02 10:26:27;;;;;;;15.40;10.05;;;-0.40;1.00;;;;;;5146928;27;20234;-78
2023/12/02 10:29:06;;;;;;;13.50;9.88;;;-0.50;1.00;;;;;;5149143;27;20264;-78
2023/12/02 10:31:36;;;;;;;12.93;9.55;;;-0.60;1.00;;;;;;5149170;27;20237;-78
2023/12/02 10:34:15;;;;;;;16.33;10.30;;;-0.80;1.00;;;;;;5147736;27;20238;-78
2023/12/02 10:36:46;;;;;;;15.45;10.15;;;-0.80;1.00;;;;;;5147679;27;20328;-78
2023/12/02 10:39:21;;;;;;;13.95;9.93;;;-0.90;1.00;;;;;;5150297;27;20230;-78
2023/12/02 10:41:52;;;;;;;16.25;10.95;;;-0.80;1.00;;;;;;5148097;27;21122;-77
2023/12/02 10:44:22;;;;;;;16.38;10.93;;;-0.70;1.00;;;;;;5148118;27;20312;-77
2023/12/02 10:46:53;;;;;;;23.05;11.40;;;-0.70;1.00;;;;;;5148741;27;20233;-77
2023/12/02 10:49:22;;;;;;;14.02;10.30;;;-0.80;1.00;;;;;;5144471;27;20238;-78
2023/12/02 10:51:51;;;;;;;15.95;9.82;;;-0.80;1.00;;;;;;5144307;27;20983;-77
2023/12/02 10:54:20;;;;;;;15.30;10.80;;;-0.80;1.00;;;;;;5141370;27;20234;-78
2023/12/02 10:56:50;;;;;;;12.30;9.55;;;-1.00;1.00;;;;;;5163501;27;20237;-78
2023/12/02 10:59:21;;;;;;;14.50;9.40;;;-1.00;1.00;;;;;;5147840;27;20233;-78
2023/12/02 11:01:59;;;;;;;17.27;10.45;;;-1.00;1.00;;;;;;5147956;27;20245;-77
2023/12/02 11:04:33;;;;;;;14.10;10.38;;;-1.10;1.00;;;;;;5146112;27;20229;-77
2023/12/02 11:07:03;;;;;;;39.65;36.00;;;-1.10;1.00;;;;;;5154511;27;20241;-78
2023/12/02 11:09:40;;;;;;;14.82;10.20;;;-1.00;1.00;;;;;;5147940;27;20230;-78
2023/12/02 11:12:17;;;;;;;14.77;8.90;;;-1.00;1.00;;;;;;5147489;27;21798;-78
2023/12/02 11:14:51;;;;;;;16.00;10.35;;;-0.90;1.00;;;;;;5151069;27;20254;-79
2023/12/02 11:17:38;;;;;;;16.45;11.18;;;-1.10;1.00;;;;;;5149219;27;20698;-78
2023/12/02 11:20:17;;;;;;;13.50;10.30;;;-1.30;1.00;;;;;;5150388;27;20237;-79
2023/12/02 11:23:09;;;;;;;14.35;10.38;;;-1.30;1.00;;;;;;5151309;27;20230;-78
2023/12/02 11:25:50;;;;;;;17.48;10.85;;;-1.40;1.00;;;;;;5143325;27;20233;-77
2023/12/02 11:28:25;;;;;;;16.20;9.00;;;-1.50;1.00;;;;;;5151134;27;20233;-79
2023/12/02 11:31:17;;;;;;;12.10;9.40;;;-1.50;1.00;;;;;;5149446;27;20279;-77
2023/12/02 11:33:59;;;;;;;15.38;9.55;;;-1.70;1.00;;;;;;5146706;27;22329;-76
2023/12/02 11:36:37;;;;;;;16.67;9.32;;;-1.70;1.00;;;;;;5147003;27;20229;-76
2023/12/02 11:39:15;;;;;;;14.48;10.00;;;-1.80;1.00;;;;;;5151498;27;20361;-78
2023/12/02 11:41:52;;;;;;;11.95;8.80;;;-1.80;1.00;;;;;;5153576;27;20290;-78
2023/12/02 11:44:30;;;;;;;13.50;9.65;;;-1.80;1.00;;;;;;5151103;27;20229;-78
2023/12/02 11:47:26;;;;;;;12.82;8.25;;;-1.80;1.00;;;;;;5153581;27;20252;-77
2023/12/02 11:50:11;;;;;;;12.10;8.60;;;-1.80;1.00;;;;;;5150395;27;20329;-77
2023/12/02 11:52:53;;;;;;;14.73;10.85;;;-1.70;1.00;;;;;;5152204;27;20347;-78
2023/12/02 11:55:29;;;;;;;15.30;9.32;;;-1.70;1.00;;;;;;5150409;27;20225;-78
2023/12/02 11:58:24;;;;;;;13.55;8.82;;;-1.70;1.00;;;;;;5149901;27;20237;-77
2023/12/02 12:01:07;;;;;;;14.15;8.73;;;-1.60;1.00;;;;;;5153627;27;20322;-78
2023/12/02 12:03:50;;;;;;;11.80;8.75;;;-1.70;1.00;;;;;;5154563;27;20230;-78
2023/12/02 12:06:30;;;;;;;16.05;10.38;;;-1.70;1.00;;;;;;5149093;27;20328;-77
2023/12/02 12:09:21;;;;;;;14.50;8.93;;;-1.70;1.00;;;;;;5152701;27;20229;-78
2023/12/02 12:11:51;;;;;;;15.70;9.20;;;-1.80;1.00;;;;;;5149929;27;20238;-78
2023/12/02 12:14:20;;;;;;;20.25;11.40;;;-1.80;1.00;;;;;;5148179;27;20320;-76
2023/12/02 12:16:50;;;;;;;13.55;9.15;;;-1.80;1.00;;;;;;5153532;27;20275;-77
2023/12/02 12:19:20;;;;;;;12.70;9.20;;;-1.90;1.00;;;;;;5151387;27;20245;-77
2023/12/02 12:21:50;;;;;;;13.95;9.20;;;-1.90;1.00;;;;;;5149207;27;20229;-77
2023/12/02 12:24:17;;;;;;;14.07;8.98;;;-1.90;1.00;;;;;;5152488;27;20234;-77
2023/12/02 12:26:45;;;;;;;17.05;9.30;;;-2.00;1.00;;;;;;5146966;27;20295;-77
2023/12/02 12:29:15;;;;;;;15.75;10.25;;;-2.00;1.00;;;;;;5150688;27;20643;-78
2023/12/02 12:31:43;;;;;;;12.70;9.95;;;-1.90;1.00;;;;;;5154387;27;20264;-78
2023/12/02 12:34:11;;;;;;;12.05;9.25;;;-1.90;1.00;;;;;;5149900;27;20238;-78
2023/12/02 12:36:41;;;;;;;10.15;7.68;;;-1.90;1.00;;;;;;5151409;27;20332;-78
2023/12/02 12:39:08;;;;;;;13.02;8.25;;;-1.90;1.00;;;;;;5150799;27;21018;-78
2023/12/02 12:41:38;;;;;;;13.50;9.20;;;-1.80;1.00;;;;;;5154487;27;20291;-78
2023/12/02 12:44:07;;;;;;;13.85;9.18;;;-1.80;1.00;;;;;;5140057;27;21296;-78
2023/12/02 12:46:36;;;;;;;13.77;7.95;;;-1.80;1.00;;;;;;5160895;27;20233;-78
2023/12/02 12:49:06;;;;;;;13.32;9.20;;;-1.70;1.00;;;;;;5150739;27;20243;-77
2023/12/02 12:51:35;;;;;;;12.35;8.80;;;-1.70;1.00;;;;;;5154540;27;20238;-78
2023/12/02 12:54:06;;;;;;;16.58;9.77;;;-1.70;1.00;;;;;;5151919;27;21037;-78